Time;durP1;ratioP1;P1;durP2;ratioP2;P2;SDS_P1;SDS_P2;PMS_P1;PMS_P2;Temp;Humidity;BMP_temperature;BMP_pressure;BME280_temperature;BME280_humidity;BME280_pressure;Samples;Min_cycle;Max_cycle;Signal;HPM_P1;HPM_P2
2023/12/25 00:01:05;;;;;;;39.60;22.98;;;8.00;99.90;;;;;;5050628;28;20120;-76
2023/12/25 00:03:31;;;;;;;37.83;22.98;;;8.00;99.90;;;;;;5051736;28;20033;-76
2023/12/25 00:05:57;;;;;;;36.83;22.58;;;8.00;99.90;;;;;;5052217;28;20029;-76
2023/12/25 00:08:23;;;;;;;35.35;22.63;;;8.00;99.90;;;;;;5050396;28;20383;-76
2023/12/25 00:10:49;;;;;;;36.92;23.02;;;8.00;99.90;;;;;;5051728;28;20487;-76
2023/12/25 00:13:15;;;;;;;32.25;21.38;;;7.90;99.90;;;;;;5047722;28;20064;-76
2023/12/25 00:15:40;;;;;;;33.30;20.70;;;8.00;99.90;;;;;;5046517;28;20052;-76
2023/12/25 00:18:06;;;;;;;32.10;21.67;;;8.00;99.90;;;;;;5050205;28;20625;-73
2023/12/25 00:20:32;;;;;;;41.63;23.05;;;8.00;99.90;;;;;;5050421;28;20070;-73
2023/12/25 00:22:58;;;;;;;36.50;23.23;;;8.00;99.90;;;;;;5049270;28;20116;-73
2023/12/25 00:25:24;;;;;;;35.22;22.10;;;8.00;99.90;;;;;;5051635;28;20556;-73
2023/12/25 00:27:50;;;;;;;32.97;21.15;;;8.00;99.90;;;;;;5051214;28;20042;-73
2023/12/25 00:30:15;;;;;;;31.73;20.65;;;8.00;99.90;;;;;;5051565;28;20057;-73
2023/12/25 00:32:41;;;;;;;30.98;21.95;;;8.00;99.90;;;;;;5049281;28;20021;-73
2023/12/25 00:35:07;;;;;;;36.70;22.40;;;8.00;99.90;;;;;;5051611;28;20090;-73
2023/12/25 00:37:32;;;;;;;35.55;20.00;;;8.00;99.90;;;;;;5051734;28;20021;-73
2023/12/25 00:39:58;;;;;;;34.70;21.10;;;8.00;99.90;;;;;;5047574;28;20103;-73
2023/12/25 00:42:24;;;;;;;32.55;20.45;;;8.00;99.90;;;;;;5050726;28;20726;-73
2023/12/25 00:44:50;;;;;;;36.22;21.83;;;8.00;99.90;;;;;;5051570;28;20025;-73
2023/12/25 00:47:15;;;;;;;35.05;21.92;;;7.90;99.90;;;;;;5049662;28;20075;-73
2023/12/25 00:49:41;;;;;;;36.00;22.33;;;7.90;99.90;;;;;;5048546;28;20082;-73
2023/12/25 00:52:07;;;;;;;37.80;20.83;;;7.90;99.90;;;;;;5047187;28;20060;-73
2023/12/25 00:54:35;;;;;;;37.42;22.85;;;7.90;99.90;;;;;;5046651;28;20029;-73
2023/12/25 00:57:01;;;;;;;35.47;22.25;;;7.90;99.90;;;;;;5048335;28;20020;-73
2023/12/25 00:59:27;;;;;;;33.65;21.25;;;7.90;99.90;;;;;;5053195;28;20490;-73
2023/12/25 01:01:52;;;;;;;36.38;20.95;;;7.90;99.90;;;;;;5050648;28;20119;-73
2023/12/25 01:04:18;;;;;;;32.97;21.38;;;7.80;99.90;;;;;;5047420;28;20022;-73
2023/12/25 01:06:44;;;;;;;34.78;21.83;;;7.80;99.90;;;;;;5056760;28;20064;-73
2023/12/25 01:09:09;;;;;;;33.20;20.85;;;7.80;99.90;;;;;;5055115;28;20035;-73
2023/12/25 01:11:42;;;;;;;32.65;21.60;;;7.80;99.90;;;;;;5049680;28;20033;-73
2023/12/25 01:14:09;;;;;;;34.10;22.67;;;7.80;99.90;;;;;;5053848;28;20038;-73
2023/12/25 01:16:35;;;;;;;37.15;22.83;;;7.90;99.90;;;;;;5054166;28;20379;-73
2023/12/25 01:19:00;;;;;;;34.80;22.40;;;7.90;99.90;;;;;;5055087;28;20056;-73
2023/12/25 01:21:26;;;;;;;30.02;21.10;;;7.90;99.90;;;;;;5053789;28;20069;-73
2023/12/25 01:23:52;;;;;;;38.38;22.83;;;7.90;99.90;;;;;;5055076;28;20024;-73
2023/12/25 01:26:18;;;;;;;32.53;21.52;;;7.90;99.90;;;;;;5054178;28;20471;-73
2023/12/25 01:28:44;;;;;;;34.85;20.83;;;7.80;99.90;;;;;;5052731;28;20032;-73
2023/12/25 01:31:10;;;;;;;35.13;20.85;;;7.80;99.90;;;;;;5053888;28;20434;-73
2023/12/25 01:33:35;;;;;;;41.28;21.92;;;7.80;99.90;;;;;;5054485;28;20029;-73
2023/12/25 01:36:01;;;;;;;34.42;20.55;;;7.80;99.90;;;;;;5056062;28;20421;-73
2023/12/25 01:38:27;;;;;;;32.83;20.95;;;7.80;99.90;;;;;;5053402;28;20033;-73
2023/12/25 01:40:52;;;;;;;34.30;21.00;;;7.80;99.90;;;;;;5050855;28;20466;-73
2023/12/25 01:43:18;;;;;;;38.10;21.45;;;7.70;99.90;;;;;;5052026;28;20068;-73
2023/12/25 01:45:44;;;;;;;31.65;20.48;;;7.70;99.90;;;;;;5054495;28;20578;-74
2023/12/25 01:48:11;;;;;;;32.20;21.40;;;7.70;99.90;;;;;;5054477;28;20463;-73
2023/12/25 01:50:37;;;;;;;33.80;20.95;;;7.70;99.90;;;;;;5054508;28;20087;-73
2023/12/25 01:53:03;;;;;;;36.83;20.77;;;7.70;99.90;;;;;;5054039;28;20025;-73
2023/12/25 01:55:30;;;;;;;32.83;20.60;;;7.70;99.90;;;;;;5054218;28;20397;-73
2023/12/25 01:57:55;;;;;;;36.78;20.60;;;7.70;99.90;;;;;;5052095;28;20111;-73
2023/12/25 02:00:21;;;;;;;36.33;20.30;;;7.70;99.90;;;;;;5054376;28;20033;-73
2023/12/25 02:02:47;;;;;;;35.13;20.95;;;7.70;99.90;;;;;;5052393;28;20055;-73
2023/12/25 02:05:12;;;;;;;31.25;21.02;;;7.70;99.90;;;;;;5054238;28;20104;-73
2023/12/25 02:07:42;;;;;;;33.45;20.55;;;7.70;99.90;;;;;;5055491;28;20086;-73
2023/12/25 02:10:08;;;;;;;32.72;21.35;;;7.80;99.90;;;;;;5049771;28;20064;-73
2023/12/25 02:12:37;;;;;;;33.05;20.90;;;7.80;99.90;;;;;;5052246;28;20025;-73
2023/12/25 02:15:03;;;;;;;32.00;20.15;;;7.80;99.90;;;;;;5054028;28;20025;-73
2023/12/25 02:17:31;;;;;;;35.63;20.35;;;7.80;99.90;;;;;;5050611;28;20025;-73
2023/12/25 02:19:57;;;;;;;30.75;19.38;;;7.80;99.90;;;;;;5054078;28;20437;-72
2023/12/25 02:22:23;;;;;;;34.55;21.85;;;7.70;99.90;;;;;;5051147;28;20025;-73
2023/12/25 02:25:01;;;;;;;34.25;21.42;;;7.70;99.90;;;;;;5052610;28;20029;-73
2023/12/25 02:27:27;;;;;;;37.88;21.20;;;7.80;99.90;;;;;;5049531;28;20470;-73
2023/12/25 02:29:53;;;;;;;38.47;21.50;;;7.70;99.90;;;;;;5053826;28;20021;-73
2023/12/25 02:32:18;;;;;;;34.85;21.00;;;7.70;99.90;;;;;;5051654;28;20452;-73
2023/12/25 02:34:47;;;;;;;32.72;21.40;;;7.70;99.90;;;;;;5053858;28;20471;-73
2023/12/25 02:37:13;;;;;;;36.05;20.88;;;7.70;99.90;;;;;;5051827;28;20028;-73
2023/12/25 02:39:39;;;;;;;30.48;21.17;;;7.70;99.90;;;;;;5049900;28;20021;-73
2023/12/25 02:42:05;;;;;;;34.15;23.23;;;7.70;99.90;;;;;;5051719;28;20031;-72
2023/12/25 02:44:30;;;;;;;34.90;20.52;;;7.70;99.90;;;;;;5053618;28;20013;-73
2023/12/25 02:46:56;;;;;;;34.75;21.50;;;7.70;99.90;;;;;;5049005;28;20128;-73
2023/12/25 02:49:22;;;;;;;39.45;21.45;;;7.80;99.90;;;;;;5053605;28;20056;-73
2023/12/25 02:51:48;;;;;;;33.22;21.00;;;7.80;99.90;;;;;;5050887;28;20454;-73
2023/12/25 02:54:13;;;;;;;35.05;20.63;;;7.80;99.90;;;;;;5053174;28;20025;-73
2023/12/25 02:56:40;;;;;;;33.20;21.63;;;7.80;99.90;;;;;;5051195;28;20399;-73
2023/12/25 02:59:05;;;;;;;34.53;21.10;;;7.80;99.90;;;;;;5046486;28;20079;-73
2023/12/25 03:01:31;;;;;;;33.58;20.88;;;7.80;99.90;;;;;;5050477;28;20033;-73
2023/12/25 03:03:57;;;;;;;33.00;21.40;;;7.80;99.90;;;;;;5053363;28;20109;-73
2023/12/25 03:06:23;;;;;;;37.47;21.02;;;7.80;99.90;;;;;;5053571;28;20441;-73
2023/12/25 03:08:48;;;;;;;42.88;22.05;;;7.80;99.90;;;;;;5052776;28;20025;-73
2023/12/25 03:11:14;;;;;;;32.78;21.67;;;7.80;99.90;;;;;;5047115;28;20394;-73
2023/12/25 03:13:40;;;;;;;32.63;22.40;;;7.90;99.90;;;;;;5050856;28;20499;-72
2023/12/25 03:16:06;;;;;;;39.05;22.35;;;7.90;99.90;;;;;;5052862;28;20024;-73
2023/12/25 03:18:32;;;;;;;37.22;22.88;;;7.90;99.90;;;;;;5047550;28;20018;-73
2023/12/25 03:20:58;;;;;;;40.50;22.83;;;7.90;99.90;;;;;;5048400;28;20600;-73
2023/12/25 03:23:24;;;;;;;41.33;23.40;;;7.90;99.90;;;;;;5051187;28;20116;-73
2023/12/25 03:25:49;;;;;;;35.95;21.65;;;7.90;99.90;;;;;;5052587;28;20534;-73
2023/12/25 03:28:15;;;;;;;41.58;25.20;;;7.90;99.90;;;;;;5051397;28;20394;-73
2023/12/25 03:30:41;;;;;;;39.28;23.70;;;7.90;99.90;;;;;;5052711;28;20025;-73
2023/12/25 03:33:09;;;;;;;34.08;23.38;;;7.80;99.90;;;;;;5052018;28;20029;-73
2023/12/25 03:35:35;;;;;;;36.50;22.95;;;7.80;99.90;;;;;;5053187;28;20475;-73
2023/12/25 03:38:01;;;;;;;41.10;24.08;;;7.80;99.90;;;;;;5051983;28;20036;-73
2023/12/25 03:40:27;;;;;;;35.58;22.85;;;7.80;99.90;;;;;;5052511;28;20056;-74
2023/12/25 03:42:55;;;;;;;38.08;23.95;;;7.80;99.90;;;;;;5048517;28;20036;-74
2023/12/25 03:45:21;;;;;;;34.50;22.98;;;7.80;99.90;;;;;;5049223;28;20041;-74
2023/12/25 03:47:47;;;;;;;38.35;23.73;;;7.80;99.90;;;;;;5049270;28;20028;-74
2023/12/25 03:50:13;;;;;;;37.72;23.55;;;7.80;99.90;;;;;;5052386;28;20422;-73
2023/12/25 03:52:39;;;;;;;41.25;23.95;;;7.80;99.90;;;;;;5050013;28;20112;-73
2023/12/25 03:55:05;;;;;;;40.40;24.20;;;7.80;99.90;;;;;;5050750;28;20025;-73
2023/12/25 03:57:30;;;;;;;34.78;23.77;;;7.80;99.90;;;;;;5050626;28;20098;-74
2023/12/25 03:59:56;;;;;;;39.00;23.65;;;7.80;99.90;;;;;;5052226;28;20071;-73
2023/12/25 04:02:22;;;;;;;34.60;23.75;;;7.80;99.90;;;;;;5050544;28;20454;-74
2023/12/25 04:04:47;;;;;;;39.40;24.42;;;7.80;99.90;;;;;;5052180;28;20368;-73
2023/12/25 04:07:14;;;;;;;40.22;23.88;;;7.70;99.90;;;;;;5052508;28;20513;-73
2023/12/25 04:09:41;;;;;;;38.08;24.52;;;7.70;99.90;;;;;;5048183;28;20032;-74
2023/12/25 04:12:06;;;;;;;39.20;24.40;;;7.70;99.90;;;;;;5049853;28;20032;-73
2023/12/25 04:14:37;;;;;;;41.45;25.15;;;7.70;99.90;;;;;;5052421;28;20371;-74
2023/12/25 04:17:03;;;;;;;36.65;24.13;;;7.70;99.90;;;;;;5059540;28;20029;-74
2023/12/25 04:19:29;;;;;;;38.40;24.58;;;7.60;99.90;;;;;;5050893;28;20025;-74
2023/12/25 04:21:55;;;;;;;37.85;24.38;;;7.60;99.90;;;;;;5049314;28;20083;-73
2023/12/25 04:24:20;;;;;;;39.83;24.17;;;7.60;99.90;;;;;;5051851;28;20083;-73
2023/12/25 04:26:46;;;;;;;37.33;24.20;;;7.60;99.90;;;;;;5045853;28;20029;-74
2023/12/25 04:29:12;;;;;;;41.63;24.05;;;7.60;99.90;;;;;;5052320;28;20039;-74
2023/12/25 04:31:37;;;;;;;39.88;24.67;;;7.70;99.90;;;;;;5049828;28;20094;-74
2023/12/25 04:34:03;;;;;;;41.28;24.73;;;7.60;99.90;;;;;;5052105;28;20027;-74
2023/12/25 04:36:29;;;;;;;38.28;23.65;;;7.70;99.90;;;;;;5049202;28;20013;-74
2023/12/25 04:38:54;;;;;;;37.35;24.77;;;7.60;99.90;;;;;;5050339;28;20507;-73
2023/12/25 04:41:21;;;;;;;33.92;23.52;;;7.60;99.90;;;;;;5047109;28;20024;-74
2023/12/25 04:43:47;;;;;;;37.80;25.10;;;7.60;99.90;;;;;;5051850;28;20035;-74
2023/12/25 04:46:13;;;;;;;40.03;23.45;;;7.60;99.90;;;;;;5050465;28;20052;-73
2023/12/25 04:48:39;;;;;;;35.85;23.58;;;7.60;99.90;;;;;;5050138;28;20021;-74
2023/12/25 04:51:04;;;;;;;38.72;24.45;;;7.60;99.90;;;;;;5051577;28;20550;-74
2023/12/25 04:53:31;;;;;;;36.58;23.00;;;7.60;99.90;;;;;;5050748;28;20021;-73
2023/12/25 04:55:57;;;;;;;35.83;24.27;;;7.60;99.90;;;;;;5051544;28;20021;-74
2023/12/25 04:58:23;;;;;;;37.10;24.42;;;7.50;99.90;;;;;;5050622;28;20420;-73
2023/12/25 05:00:48;;;;;;;38.00;23.90;;;7.60;99.90;;;;;;5047056;28;20051;-74
2023/12/25 05:03:14;;;;;;;42.28;24.70;;;7.60;99.90;;;;;;5050213;28;20479;-74
2023/12/25 05:05:40;;;;;;;34.72;24.70;;;7.60;99.90;;;;;;5049946;28;20495;-74
2023/12/25 05:08:05;;;;;;;37.15;23.88;;;7.60;99.90;;;;;;5050709;28;20028;-74
2023/12/25 05:10:31;;;;;;;42.25;23.80;;;7.60;99.90;;;;;;5047660;28;20461;-73
2023/12/25 05:12:57;;;;;;;41.30;23.67;;;7.60;99.90;;;;;;5049858;28;20390;-74
2023/12/25 05:15:23;;;;;;;44.75;25.30;;;7.60;99.90;;;;;;5040578;28;20025;-73
2023/12/25 05:17:48;;;;;;;37.42;24.25;;;7.60;99.90;;;;;;5039565;28;20057;-73
2023/12/25 05:20:14;;;;;;;43.97;25.38;;;7.50;99.90;;;;;;5051492;28;20368;-73
2023/12/25 05:22:40;;;;;;;41.00;25.42;;;7.50;99.90;;;;;;5046943;28;20024;-73
2023/12/25 05:25:06;;;;;;;40.75;25.48;;;7.50;99.90;;;;;;5051368;28;20098;-73
2023/12/25 05:27:32;;;;;;;38.60;24.73;;;7.50;99.90;;;;;;5051147;28;20025;-74
2023/12/25 05:29:59;;;;;;;42.85;24.15;;;7.50;99.90;;;;;;5051357;28;20119;-73
2023/12/25 05:32:25;;;;;;;43.15;25.48;;;7.60;99.90;;;;;;5049074;28;20017;-74
2023/12/25 05:34:51;;;;;;;35.88;24.23;;;7.60;99.90;;;;;;5051150;28;20021;-73
2023/12/25 05:37:16;;;;;;;33.42;24.00;;;7.60;99.90;;;;;;5052983;28;20016;-74
2023/12/25 05:39:42;;;;;;;41.08;25.27;;;7.60;99.90;;;;;;5047556;28;20061;-73
2023/12/25 05:42:07;;;;;;;38.80;24.08;;;7.60;99.90;;;;;;5049634;28;20017;-73
2023/12/25 05:44:33;;;;;;;42.28;25.08;;;7.50;99.90;;;;;;5053728;28;20048;-74
2023/12/25 05:46:59;;;;;;;40.78;24.88;;;7.60;99.90;;;;;;5053492;28;20041;-74
2023/12/25 05:49:24;;;;;;;36.63;24.08;;;7.60;99.90;;;;;;5062723;28;20062;-73
2023/12/25 05:51:50;;;;;;;47.45;25.98;;;7.60;99.90;;;;;;5052788;28;20040;-73
2023/12/25 05:54:16;;;;;;;40.67;24.98;;;7.50;99.90;;;;;;5054597;28;20028;-73
2023/12/25 05:56:41;;;;;;;40.08;24.58;;;7.50;99.90;;;;;;5053130;28;20025;-74
2023/12/25 05:59:07;;;;;;;39.22;25.63;;;7.50;99.90;;;;;;5054212;28;20475;-73
2023/12/25 06:01:32;;;;;;;43.10;26.27;;;7.50;99.90;;;;;;5053299;28;20380;-73
2023/12/25 06:04:00;;;;;;;37.67;25.48;;;7.50;99.90;;;;;;5053443;28;20021;-74
2023/12/25 06:06:26;;;;;;;43.35;27.25;;;7.50;99.90;;;;;;5054879;28;20029;-74
2023/12/25 06:08:52;;;;;;;52.60;28.30;;;7.50;99.90;;;;;;5054042;28;20402;-73
2023/12/25 06:11:36;;;;;;;42.38;26.25;;;7.50;99.90;;;;;;5049763;28;20036;-73
2023/12/25 06:14:01;;;;;;;42.65;27.02;;;7.50;99.90;;;;;;5054042;28;20025;-73
2023/12/25 06:16:27;;;;;;;41.53;26.23;;;7.50;99.90;;;;;;5053694;28;20023;-73
2023/12/25 06:18:53;;;;;;;43.55;27.50;;;7.50;99.90;;;;;;5049891;28;20120;-73
2023/12/25 06:21:18;;;;;;;51.92;28.00;;;7.50;99.90;;;;;;5052635;28;20032;-74
2023/12/25 06:23:44;;;;;;;42.45;26.95;;;7.50;99.90;;;;;;5054066;28;20025;-74
2023/12/25 06:26:10;;;;;;;40.20;27.27;;;7.50;99.90;;;;;;5053413;28;20029;-73
2023/12/25 06:28:35;;;;;;;44.58;27.55;;;7.50;99.90;;;;;;5052080;28;20032;-73
2023/12/25 06:31:01;;;;;;;38.88;25.48;;;7.50;99.90;;;;;;5053891;28;20029;-73
2023/12/25 06:33:27;;;;;;;38.90;26.42;;;7.50;99.90;;;;;;5050983;28;20050;-73
2023/12/25 06:35:52;;;;;;;49.30;28.20;;;7.50;99.90;;;;;;5056303;28;20071;-73
2023/12/25 06:38:18;;;;;;;41.35;26.70;;;7.60;99.90;;;;;;5052965;28;20032;-73
2023/12/25 06:40:44;;;;;;;43.58;26.55;;;7.60;99.90;;;;;;5048506;28;20124;-74
2023/12/25 06:43:09;;;;;;;44.05;27.75;;;7.60;99.90;;;;;;5052198;28;20037;-74
2023/12/25 06:45:35;;;;;;;45.25;26.65;;;7.60;99.90;;;;;;5053637;28;20059;-74
2023/12/25 06:48:01;;;;;;;44.83;26.92;;;7.60;99.90;;;;;;5051692;28;20048;-73
2023/12/25 06:50:26;;;;;;;45.03;25.13;;;7.50;99.90;;;;;;5053542;28;20029;-73
2023/12/25 06:52:52;;;;;;;37.65;26.63;;;7.60;99.90;;;;;;5062914;28;20036;-73
2023/12/25 06:55:18;;;;;;;42.05;27.48;;;7.50;99.90;;;;;;5050676;28;20514;-73
2023/12/25 06:57:44;;;;;;;40.83;26.98;;;7.50;99.90;;;;;;5049398;28;20084;-74
2023/12/25 07:00:11;;;;;;;42.28;27.23;;;7.50;99.90;;;;;;5052732;28;20044;-73
2023/12/25 07:02:37;;;;;;;38.70;27.00;;;7.50;99.90;;;;;;5050030;28;20387;-74
2023/12/25 07:05:04;;;;;;;45.95;29.40;;;7.50;99.90;;;;;;5072144;28;20491;-73
2023/12/25 07:07:30;;;;;;;42.05;28.25;;;7.50;99.90;;;;;;5048741;28;20495;-73
2023/12/25 07:09:56;;;;;;;45.97;28.50;;;7.50;99.90;;;;;;5047964;28;20147;-73
2023/12/25 07:12:23;;;;;;;44.15;28.75;;;7.50;99.90;;;;;;5051076;28;20108;-73
2023/12/25 07:14:50;;;;;;;45.90;28.42;;;7.50;99.90;;;;;;5049637;28;20021;-73
2023/12/25 07:17:17;;;;;;;49.17;30.05;;;7.50;99.90;;;;;;5046310;28;20016;-74
2023/12/25 07:19:43;;;;;;;44.15;29.77;;;7.50;99.90;;;;;;5045860;28;20036;-73
2023/12/25 07:22:11;;;;;;;53.42;30.00;;;7.50;99.90;;;;;;5049154;28;20585;-74
2023/12/25 07:24:37;;;;;;;43.17;28.33;;;7.40;99.90;;;;;;5051192;28;20167;-74
2023/12/25 07:27:03;;;;;;;40.05;27.45;;;7.40;99.90;;;;;;5048366;28;20483;-73
2023/12/25 07:29:30;;;;;;;47.47;29.00;;;7.40;99.90;;;;;;5045769;28;20511;-73
2023/12/25 07:31:57;;;;;;;44.50;28.40;;;7.50;99.90;;;;;;5045899;28;20593;-73
2023/12/25 07:34:22;;;;;;;47.08;27.23;;;7.40;99.90;;;;;;5052520;28;20558;-74
2023/12/25 07:36:48;;;;;;;39.67;28.05;;;7.50;99.90;;;;;;5049693;28;20022;-73
2023/12/25 07:39:14;;;;;;;41.45;27.63;;;7.50;99.90;;;;;;5046745;28;20029;-73
2023/12/25 07:41:42;;;;;;;44.45;28.77;;;7.50;99.90;;;;;;5042762;28;20055;-73
2023/12/25 07:44:08;;;;;;;41.40;27.83;;;7.50;99.90;;;;;;5051054;28;20447;-75
2023/12/25 07:46:33;;;;;;;42.60;27.08;;;7.50;99.90;;;;;;5050848;28;20049;-73
2023/12/25 07:48:59;;;;;;;49.15;29.75;;;7.40;99.90;;;;;;5063733;28;21702;-73
2023/12/25 07:51:27;;;;;;;45.75;32.47;;;7.40;99.90;;;;;;5062933;28;20049;-74
2023/12/25 07:53:52;;;;;;;47.67;33.45;;;7.30;99.90;;;;;;5049117;28;20071;-73
2023/12/25 07:56:18;;;;;;;58.78;38.10;;;7.30;99.90;;;;;;5044649;28;20037;-73
2023/12/25 07:58:43;;;;;;;51.83;35.75;;;7.30;99.90;;;;;;5043152;28;20033;-73
2023/12/25 08:01:12;;;;;;;57.72;37.47;;;7.30;99.90;;;;;;5042293;28;20033;-73
2023/12/25 08:03:38;;;;;;;51.90;36.30;;;7.30;99.90;;;;;;5048185;28;20036;-73
2023/12/25 08:06:04;;;;;;;54.30;35.95;;;7.30;99.90;;;;;;5048222;28;20056;-74
2023/12/25 08:08:30;;;;;;;51.10;35.15;;;7.30;99.90;;;;;;5047459;28;20028;-73
2023/12/25 08:10:56;;;;;;;51.97;36.65;;;7.30;99.90;;;;;;5044456;28;20032;-73
2023/12/25 08:13:22;;;;;;;55.58;38.30;;;7.30;99.90;;;;;;5046488;28;20115;-73
2023/12/25 08:15:47;;;;;;;53.55;38.10;;;7.40;99.90;;;;;;5050166;28;20296;-73
2023/12/25 08:18:13;;;;;;;51.72;34.83;;;7.40;99.90;;;;;;5048306;28;20468;-73
2023/12/25 08:20:38;;;;;;;48.95;33.22;;;7.50;99.90;;;;;;5049003;28;20060;-73
2023/12/25 08:23:04;;;;;;;43.20;30.55;;;7.50;99.90;;;;;;5047384;28;20033;-73
2023/12/25 08:25:30;;;;;;;46.38;30.08;;;7.50;99.90;;;;;;5048416;28;20744;-74
2023/12/25 08:27:56;;;;;;;45.22;30.67;;;7.60;99.90;;;;;;5040278;28;20029;-73
2023/12/25 08:30:22;;;;;;;44.92;30.65;;;7.60;99.90;;;;;;5049469;28;20040;-73
2023/12/25 08:32:47;;;;;;;47.53;30.63;;;7.60;99.90;;;;;;5047531;28;20028;-73
2023/12/25 08:35:13;;;;;;;51.08;30.73;;;7.70;99.90;;;;;;5049418;28;20036;-74
2023/12/25 08:37:39;;;;;;;48.53;29.63;;;7.70;99.90;;;;;;5049206;28;20017;-73
2023/12/25 08:40:06;;;;;;;45.03;29.55;;;7.80;99.90;;;;;;5049282;28;20024;-74
2023/12/25 08:42:32;;;;;;;41.33;28.70;;;7.90;99.90;;;;;;5048135;28;20070;-73
2023/12/25 08:44:57;;;;;;;49.22;29.25;;;7.90;99.90;;;;;;5051367;28;20013;-76
2023/12/25 08:47:24;;;;;;;49.15;31.48;;;7.90;99.90;;;;;;5051461;28;20029;-77
2023/12/25 08:49:50;;;;;;;47.55;29.05;;;8.00;99.90;;;;;;5051432;28;20032;-77
2023/12/25 08:52:17;;;;;;;46.08;30.48;;;8.00;99.90;;;;;;5051223;28;20367;-77
2023/12/25 08:54:43;;;;;;;47.08;29.33;;;8.00;99.90;;;;;;5051379;28;20113;-76
2023/12/25 08:57:09;;;;;;;53.30;31.90;;;8.10;99.90;;;;;;5051072;28;20100;-76
2023/12/25 08:59:34;;;;;;;51.72;31.38;;;8.10;99.90;;;;;;5051194;28;20383;-76
2023/12/25 09:02:00;;;;;;;56.65;35.75;;;8.10;99.90;;;;;;5051081;28;20029;-76
2023/12/25 09:04:26;;;;;;;58.08;37.53;;;8.10;99.90;;;;;;5051440;28;20446;-76
2023/12/25 09:06:52;;;;;;;54.13;35.17;;;8.20;99.90;;;;;;5048671;28;20028;-76
2023/12/25 09:09:17;;;;;;;57.58;39.05;;;8.20;99.90;;;;;;5058974;28;20083;-77
2023/12/25 09:11:43;;;;;;;68.03;44.28;;;8.20;99.90;;;;;;5050708;28;20025;-76
2023/12/25 09:14:09;;;;;;;77.30;49.40;;;8.30;99.90;;;;;;5051245;28;20079;-76
2023/12/25 09:16:35;;;;;;;72.40;49.45;;;8.30;99.90;;;;;;5044570;28;20029;-76
2023/12/25 09:19:03;;;;;;;79.95;53.92;;;8.40;99.90;;;;;;5052951;28;20033;-76
2023/12/25 09:21:28;;;;;;;79.18;52.35;;;8.40;99.90;;;;;;5053534;28;20498;-76
2023/12/25 09:23:54;;;;;;;88.00;61.70;;;8.40;99.90;;;;;;5055177;28;20029;-76
2023/12/25 09:26:20;;;;;;;90.57;61.70;;;8.60;99.90;;;;;;5054800;28;20068;-76
2023/12/25 09:28:47;;;;;;;92.47;63.22;;;8.70;99.90;;;;;;5055087;28;20416;-76
2023/12/25 09:31:13;;;;;;;94.93;64.45;;;8.80;99.90;;;;;;5054738;28;20036;-76
2023/12/25 09:33:40;;;;;;;90.93;64.50;;;8.80;99.90;;;;;;5053633;28;20120;-76
2023/12/25 09:36:08;;;;;;;91.00;63.45;;;8.80;99.90;;;;;;5056640;28;20032;-76
2023/12/25 09:38:34;;;;;;;104.15;62.17;;;8.90;99.90;;;;;;5054852;28;20033;-76
2023/12/25 09:41:00;;;;;;;91.55;60.58;;;9.00;99.90;;;;;;5050854;28;20025;-77
2023/12/25 09:43:27;;;;;;;89.28;58.50;;;9.10;99.90;;;;;;5054605;28;20029;-76
2023/12/25 09:45:54;;;;;;;96.20;61.78;;;9.20;99.90;;;;;;5053392;28;20319;-76
2023/12/25 09:48:19;;;;;;;99.10;63.03;;;9.20;99.90;;;;;;5054525;28;20590;-76
2023/12/25 09:50:45;;;;;;;87.70;59.13;;;9.30;99.90;;;;;;5054371;28;20033;-76
2023/12/25 09:53:11;;;;;;;87.32;58.58;;;9.30;99.90;;;;;;5054147;28;20471;-77
2023/12/25 09:55:37;;;;;;;81.03;54.17;;;9.40;99.90;;;;;;5054410;28;20474;-76
2023/12/25 09:58:10;;;;;;;76.45;52.28;;;9.40;99.90;;;;;;5050519;28;20079;-76
2023/12/25 10:00:36;;;;;;;91.55;53.55;;;9.50;99.90;;;;;;5054270;28;20219;-76
2023/12/25 10:03:03;;;;;;;86.07;57.97;;;9.60;99.90;;;;;;5050647;28;20040;-76
2023/12/25 10:05:29;;;;;;;83.35;56.92;;;9.60;99.90;;;;;;5054541;28;20025;-76
2023/12/25 10:07:55;;;;;;;84.55;56.33;;;9.70;99.90;;;;;;5057515;28;20075;-77
2023/12/25 10:10:30;;;;;;;78.30;54.60;;;9.80;99.90;;;;;;5050145;28;20063;-76
2023/12/25 10:12:59;;;;;;;80.47;54.33;;;9.90;99.90;;;;;;5053014;28;20509;-77
2023/12/25 10:15:25;;;;;;;74.57;53.58;;;9.90;99.90;;;;;;5054219;28;20379;-76
2023/12/25 10:18:07;;;;;;;80.40;53.75;;;9.90;99.90;;;;;;5053855;28;20036;-76
2023/12/25 10:20:33;;;;;;;77.22;52.75;;;9.90;99.90;;;;;;5053912;28;20447;-76
2023/12/25 10:23:00;;;;;;;79.15;53.63;;;10.00;99.90;;;;;;5053817;28;20468;-76
2023/12/25 10:25:30;;;;;;;74.85;51.55;;;10.10;99.90;;;;;;5053841;28;20059;-76
2023/12/25 10:27:55;;;;;;;71.97;48.30;;;10.10;99.90;;;;;;5052893;28;20121;-76
2023/12/25 10:30:27;;;;;;;67.07;46.70;;;10.20;99.90;;;;;;5053207;28;20108;-76
2023/12/25 10:33:14;;;;;;;59.47;39.20;;;10.20;99.90;;;;;;5050872;28;20391;-76
2023/12/25 10:35:40;;;;;;;67.13;40.08;;;10.30;99.90;;;;;;5046836;28;20426;-76
2023/12/25 10:38:07;;;;;;;61.20;41.58;;;10.20;99.90;;;;;;5054325;28;20043;-76
2023/12/25 10:40:34;;;;;;;67.18;40.97;;;10.30;99.90;;;;;;5049753;28;20505;-76
2023/12/25 10:43:00;;;;;;;59.38;39.90;;;10.30;99.90;;;;;;5053518;28;20034;-76
2023/12/25 10:45:27;;;;;;;67.18;41.95;;;10.30;99.90;;;;;;5053235;28;20045;-76
2023/12/25 10:47:55;;;;;;;60.17;39.33;;;10.40;99.90;;;;;;5053468;28;20132;-76
2023/12/25 10:50:22;;;;;;;62.47;37.70;;;10.40;99.90;;;;;;5053427;28;20040;-76
2023/12/25 10:52:52;;;;;;;62.15;38.65;;;10.40;99.90;;;;;;5053290;28;20017;-76
2023/12/25 10:55:39;;;;;;;62.83;40.70;;;10.50;99.90;;;;;;5053479;28;20100;-76
2023/12/25 10:58:10;;;;;;;61.08;39.88;;;10.60;99.90;;;;;;5049752;28;20108;-76
2023/12/25 11:00:43;;;;;;;56.67;41.53;;;10.60;99.90;;;;;;5060488;28;20364;-76
2023/12/25 11:03:14;;;;;;;52.60;37.17;;;10.70;99.90;;;;;;5053023;28;20025;-76
2023/12/25 11:05:40;;;;;;;67.30;39.58;;;10.70;99.90;;;;;;5059961;28;20052;-77
2023/12/25 11:08:06;;;;;;;62.05;39.35;;;10.70;99.90;;;;;;5055408;28;20028;-76
2023/12/25 11:10:32;;;;;;;56.90;38.58;;;10.90;99.90;;;;;;5048926;28;20391;-76
2023/12/25 11:12:58;;;;;;;61.75;40.47;;;10.90;99.90;;;;;;5052960;28;20044;-76
2023/12/25 11:15:24;;;;;;;61.55;39.72;;;10.90;99.90;;;;;;5053075;28;20468;-76
2023/12/25 11:17:51;;;;;;;62.33;39.20;;;10.80;99.90;;;;;;5052981;28;20036;-77
2023/12/25 11:20:17;;;;;;;65.80;39.00;;;10.80;99.90;;;;;;5052872;28;20029;-76
2023/12/25 11:22:46;;;;;;;53.60;34.55;;;10.80;99.90;;;;;;5051057;28;20383;-76
2023/12/25 11:25:17;;;;;;;57.45;37.72;;;10.80;99.90;;;;;;5052494;28;20386;-76
2023/12/25 11:27:51;;;;;;;64.20;41.17;;;10.80;99.90;;;;;;5052542;28;20506;-76
2023/12/25 11:30:18;;;;;;;67.35;39.78;;;10.80;99.90;;;;;;5052490;28;20029;-76
2023/12/25 11:32:48;;;;;;;62.50;38.70;;;10.80;99.90;;;;;;5048887;28;20029;-76
2023/12/25 11:35:14;;;;;;;62.08;39.97;;;10.90;99.90;;;;;;5052580;28;20521;-76
2023/12/25 11:37:40;;;;;;;68.00;38.70;;;10.90;99.90;;;;;;5053338;28;20450;-76
2023/12/25 11:40:07;;;;;;;62.65;38.60;;;10.90;99.90;;;;;;5051571;28;20117;-76
2023/12/25 11:42:35;;;;;;;60.22;37.75;;;10.90;99.90;;;;;;5050096;28;20025;-76
2023/12/25 11:45:06;;;;;;;60.75;36.13;;;10.90;99.90;;;;;;5052181;28;20055;-76
2023/12/25 11:47:45;;;;;;;55.88;35.83;;;10.90;99.90;;;;;;5052596;28;20025;-76
2023/12/25 11:50:14;;;;;;;59.20;36.67;;;10.90;99.90;;;;;;5052172;28;20025;-76
2023/12/25 11:52:43;;;;;;;55.20;37.20;;;11.00;99.90;;;;;;5051886;28;20043;-76
2023/12/25 11:55:12;;;;;;;55.97;34.60;;;11.00;99.90;;;;;;5051107;28;20038;-76
2023/12/25 11:57:37;;;;;;;61.13;35.83;;;11.00;99.90;;;;;;5051913;28;20530;-76
2023/12/25 12:00:05;;;;;;;55.20;36.25;;;11.00;99.90;;;;;;5051913;28;20109;-76
2023/12/25 12:02:31;;;;;;;54.30;36.20;;;11.00;99.90;;;;;;5045658;28;20032;-76
2023/12/25 12:04:56;;;;;;;62.72;35.72;;;11.00;99.90;;;;;;5052143;28;20071;-76
2023/12/25 12:07:22;;;;;;;53.10;36.47;;;11.10;99.90;;;;;;5052156;28;20025;-77
2023/12/25 12:09:48;;;;;;;51.28;35.53;;;11.10;99.90;;;;;;5049439;28;20021;-76
2023/12/25 12:12:13;;;;;;;58.70;37.72;;;11.20;99.90;;;;;;5051484;28;20056;-76
2023/12/25 12:14:39;;;;;;;55.13;36.35;;;11.30;99.90;;;;;;5052047;28;20052;-76
2023/12/25 12:17:05;;;;;;;57.95;38.70;;;11.30;99.90;;;;;;5051579;28;20493;-77
2023/12/25 12:19:31;;;;;;;52.83;35.47;;;11.30;99.90;;;;;;5051837;28;20048;-76
2023/12/25 12:21:58;;;;;;;51.90;33.78;;;11.40;99.90;;;;;;5051523;28;20471;-77
2023/12/25 12:24:27;;;;;;;48.30;34.08;;;11.40;99.90;;;;;;5051771;28;20421;-77
2023/12/25 12:26:53;;;;;;;55.40;34.17;;;11.50;99.90;;;;;;5048259;28;20036;-76
2023/12/25 12:29:19;;;;;;;52.80;32.88;;;11.50;99.90;;;;;;5051616;28;20028;-76
2023/12/25 12:31:45;;;;;;;50.97;31.90;;;11.50;99.90;;;;;;5051193;28;20029;-76